Time;durP1;ratioP1;P1;durP2;ratioP2;P2;SDS_P1;SDS_P2;PMS_P1;PMS_P2;Temp;Humidity;BMP_temperature;BMP_pressure;BME280_temperature;BME280_humidity;BME280_pressure;Samples;Min_cycle;Max_cycle;Signal;HPM_P1;HPM_P2
2023/08/25 00:00:24;;;;;;;25.57;12.17;;;;;;;27.39;64.82;100096.38;31386195;28;20049;-78
2023/08/25 00:15:26;;;;;;;37.78;15.00;;;;;;;27.23;63.45;100102.22;31402844;28;20135;-78
2023/08/25 00:30:28;;;;;;;19.40;11.33;;;;;;;27.18;61.37;100098.25;31396693;28;20053;-78
2023/08/25 00:45:35;;;;;;;20.20;10.70;;;;;;;27.21;60.86;100097.19;31392005;28;20143;-78
2023/08/25 01:00:39;;;;;;;19.95;9.10;;;;;;;26.99;60.64;100092.00;31399526;28;20041;-78
2023/08/25 01:15:49;;;;;;;23.70;9.55;;;;;;;26.44;70.82;100084.00;31388331;28;20422;-79
2023/08/25 01:30:56;;;;;;;15.90;8.18;;;;;;;25.85;75.39;100090.59;31378701;28;20075;-76
2023/08/25 01:45:59;;;;;;;13.23;7.85;;;;;;;25.85;73.98;100095.41;31360840;28;20052;-80
2023/08/25 02:01:03;;;;;;;11.10;6.93;;;;;;;26.04;71.70;100102.47;31370108;28;20521;-79
2023/08/25 02:16:12;;;;;;;12.60;6.78;;;;;;;26.12;70.00;100097.81;31361862;28;20061;-76
2023/08/25 02:31:14;;;;;;;12.43;5.77;;;;;;;26.12;69.01;100103.38;31357992;28;20049;-79
2023/08/25 02:46:16;;;;;;;11.17;4.90;;;;;;;26.25;66.08;100115.84;31370463;28;20310;-78
2023/08/25 03:01:18;;;;;;;10.02;5.25;;;;;;;26.37;64.59;100111.69;31353069;28;20556;-76
2023/08/25 03:16:20;;;;;;;9.15;4.57;;;;;;;26.28;64.42;100103.69;31345020;28;20456;-76
2023/08/25 03:31:24;;;;;;;11.02;5.38;;;;;;;26.41;63.95;100092.66;31370109;28;20051;-76
2023/08/25 03:46:32;;;;;;;12.02;4.43;;;;;;;26.54;64.22;100097.50;31350589;28;20083;-78
2023/08/25 04:01:34;;;;;;;11.63;4.85;;;;;;;26.69;64.57;100087.38;31386145;28;20049;-77
2023/08/25 04:16:36;;;;;;;11.35;4.88;;;;;;;26.75;65.10;100107.56;31372624;28;20117;-76
2023/08/25 04:31:38;;;;;;;10.97;6.13;;;;;;;26.91;65.45;100102.25;31361460;28;20457;-77
2023/08/25 04:46:41;;;;;;;13.97;5.37;;;;;;;27.48;65.50;100121.00;31348549;28;20434;-76
2023/08/25 05:01:43;;;;;;;26.37;13.73;;;;;;;27.92;64.81;100129.81;31342664;28;20045;-75
2023/08/25 05:16:45;;;;;;;14.73;4.57;;;;;;;27.87;65.09;100155.81;31356089;28;20498;-74
2023/08/25 05:31:47;;;;;;;12.30;7.77;;;;;;;29.13;61.73;100168.75;31339591;28;20048;-77
2023/08/25 05:46:49;;;;;;;;;;;;;;;29.81;57.38;100179.72;31357164;28;20080;-77
2023/08/25 06:01:51;;;;;;;4.70;2.42;;;;;;;30.73;54.40;100203.28;31331862;28;20381;-76
2023/08/25 06:16:59;;;;;;;6.55;2.28;;;;;;;31.79;48.33;100208.25;31346066;28;20102;-76
2023/08/25 06:32:05;;;;;;;3.53;2.08;;;;;;;32.54;47.49;100218.50;31382991;28;20045;-80
2023/08/25 06:47:07;;;;;;;10.45;2.40;;;;;;;33.49;45.47;100231.59;31347133;28;20052;-80
2023/08/25 07:02:13;;;;;;;7.40;3.30;;;;;;;34.33;42.70;100215.91;31368231;28;20075;-75
2023/08/25 07:17:18;;;;;;;16.67;10.48;;;;;;;34.42;41.49;100218.06;31390294;28;20525;-77
2023/08/25 07:32:21;;;;;;;4.30;2.00;;;;;;;35.12;39.32;100219.34;31376897;28;20048;-78
2023/08/25 07:47:26;;;;;;;4.43;2.00;;;;;;;35.51;39.04;100206.84;31390829;28;20103;-78
2023/08/25 08:02:28;;;;;;;2.22;1.50;;;;;;;36.01;37.39;100209.13;31438216;28;20383;-78
2023/08/25 08:17:30;;;;;;;3.75;1.50;;;;;;;36.52;36.08;100216.41;31371166;28;20103;-81
2023/08/25 08:32:37;;;;;;;3.67;1.80;;;;;;;37.13;34.35;100202.94;31412166;28;20130;-82
2023/08/25 08:47:41;;;;;;;2.85;1.30;;;;;;;37.40;34.26;100202.69;31406918;28;20418;-78
2023/08/25 09:02:51;;;;;;;5.45;1.50;;;;;;;37.63;33.90;100204.91;31391433;28;20132;-79
2023/08/25 09:18:03;;;;;;;4.30;1.70;;;;;;;38.33;31.63;100202.41;31375600;28;20049;-78
2023/08/25 09:33:09;;;;;;;5.68;2.00;;;;;;;38.13;32.96;100196.94;31358612;28;20072;-78
2023/08/25 09:48:16;;;;;;;6.13;2.47;;;;;;;37.53;32.99;100194.41;31342028;28;20057;-81
2023/08/25 10:03:18;;;;;;;6.32;3.33;;;;;;;36.86;33.99;100198.28;31337292;28;20052;-76
2023/08/25 10:18:22;;;;;;;4.30;2.30;;;;;;;37.69;32.95;100177.03;31357756;28;20052;-77
2023/08/25 10:33:44;;;;;;;13.32;2.00;;;;;;;38.19;31.75;100171.84;31395310;28;20497;-77
2023/08/25 10:48:51;;;;;;;4.13;2.15;;;;;;;38.27;30.47;100177.25;31402938;28;20057;-76
2023/08/25 11:04:21;;;;;;;9.90;1.93;;;;;;;38.72;29.88;100175.16;31418128;28;20140;-77
2023/08/25 11:19:27;;;;;;;6.60;2.17;;;;;;;40.36;28.80;100147.09;31349559;28;20045;-79
2023/08/25 11:34:31;;;;;;;5.43;2.58;;;;;;;40.74;28.00;100137.06;31332921;28;20048;-77
2023/08/25 11:49:33;;;;;;;5.28;2.03;;;;;;;38.55;29.21;100149.94;31344965;28;20055;-82
2023/08/25 12:04:35;;;;;;;12.40;3.22;;;;;;;36.90;30.52;100146.91;31395802;28;20116;-80
2023/08/25 12:19:38;;;;;;;5.53;2.72;;;;;;;35.59;31.98;100146.69;31391372;28;20502;-83
2023/08/25 12:34:43;;;;;;;6.78;2.08;;;;;;;35.10;32.42;100159.94;31400356;28;20139;-82
2023/08/25 12:49:47;;;;;;;3.33;2.20;;;;;;;34.67;32.24;100153.81;31428299;28;20483;-82
2023/08/25 13:04:51;;;;;;;7.13;1.95;;;;;;;34.30;32.63;100155.09;31420077;28;20527;-81
2023/08/25 13:19:59;;;;;;;3.17;1.52;;;;;;;34.01;33.09;100158.44;31408856;28;20126;-80
2023/08/25 13:35:02;;;;;;;6.85;3.65;;;;;;;33.54;33.83;100160.22;31408919;28;20486;-80
2023/08/25 13:50:10;;;;;;;3.30;1.98;;;;;;;33.49;33.94;100161.25;31419045;28;20053;-84
2023/08/25 14:05:15;;;;;;;5.03;1.90;;;;;;;33.34;35.14;100141.66;31390051;28;20056;-82
2023/08/25 14:20:19;;;;;;;18.38;11.63;;;;;;;32.68;36.69;100145.16;31392750;28;20478;-79
2023/08/25 14:35:21;;;;;;;4.55;2.20;;;;;;;32.35;37.07;100142.38;31343867;28;20140;-77
2023/08/25 14:50:23;;;;;;;13.15;3.78;;;;;;;32.39;37.23;100150.38;31367894;28;20486;-78
2023/08/25 15:05:25;;;;;;;3.03;2.20;;;;;;;32.58;36.36;100156.28;31375264;28;20139;-77
2023/08/25 15:20:27;;;;;;;6.35;2.75;;;;;;;32.48;37.16;100161.03;31380084;28;20036;-78
2023/08/25 15:35:32;;;;;;;5.10;3.03;;;;;;;31.98;38.39;100158.03;31405419;28;20055;-88
2023/08/25 15:50:35;;;;;;;4.88;2.90;;;;;;;31.92;38.54;100160.28;31404341;28;20498;-82
2023/08/25 16:05:37;;;;;;;4.57;3.20;;;;;;;31.52;39.15;100174.97;31375279;28;20149;-81
2023/08/25 16:20:44;;;;;;;5.32;2.90;;;;;;;31.41;39.27;100174.63;31410876;28;20072;-81
2023/08/25 16:35:48;;;;;;;8.32;3.75;;;;;;;31.10;40.38;100187.84;31396609;28;20044;-81
2023/08/25 16:50:57;;;;;;;6.00;4.18;;;;;;;30.91;40.52;100198.69;31368863;28;20064;-82
2023/08/25 17:06:03;;;;;;;15.55;6.30;;;;;;;30.73;40.99;100201.25;31389993;28;20049;-83
2023/08/25 17:21:09;;;;;;;11.23;5.25;;;;;;;30.81;40.87;100221.63;31397054;28;20037;-83
2023/08/25 17:36:14;;;;;;;13.52;5.68;;;;;;;30.72;41.15;100232.63;31394713;28;20501;-82
2023/08/25 17:51:16;;;;;;;11.23;4.32;;;;;;;30.40;41.89;100239.41;31382149;28;20083;-74
2023/08/25 18:06:18;;;;;;;14.38;5.88;;;;;;;29.81;44.43;100252.47;31379201;28;20067;-75
2023/08/25 18:21:20;;;;;;;7.97;5.60;;;;;;;29.45;45.48;100255.94;31356494;28;20049;-74
2023/08/25 18:36:23;;;;;;;13.33;6.80;;;;;;;29.38;45.22;100250.22;31364677;28;20357;-73
2023/08/25 18:51:25;;;;;;;7.75;4.50;;;;;;;29.18;45.35;100271.28;31383963;28;20396;-75
2023/08/25 19:06:29;;;;;;;5.78;3.90;;;;;;;28.93;46.49;100261.72;31385905;28;20067;-73
2023/08/25 19:21:31;;;;;;;10.77;5.77;;;;;;;28.88;46.59;100266.13;31381517;28;20503;-77
2023/08/25 19:36:38;;;;;;;8.37;4.50;;;;;;;29.16;46.09;100285.06;31413299;28;20434;-80
2023/08/25 19:51:42;;;;;;;10.30;4.40;;;;;;;29.18;46.14;100276.88;31411168;28;20056;-77
2023/08/25 20:06:46;;;;;;;6.57;4.30;;;;;;;29.01;46.36;100282.13;31406155;28;20422;-78
2023/08/25 20:21:48;;;;;;;16.58;8.93;;;;;;;28.89;46.45;100294.81;31413715;28;20045;-78
2023/08/25 20:36:53;;;;;;;9.90;4.80;;;;;;;28.90;46.76;100291.50;31403679;28;20072;-78
2023/08/25 20:51:59;;;;;;;7.43;3.85;;;;;;;28.68;47.53;100312.25;31402908;28;20102;-77
2023/08/25 21:07:04;;;;;;;8.35;4.00;;;;;;;28.36;48.25;100317.19;31366768;28;20080;-76
2023/08/25 21:22:06;;;;;;;6.90;3.53;;;;;;;28.36;47.96;100320.00;31349171;28;20045;-77
2023/08/25 21:37:08;;;;;;;7.50;4.80;;;;;;;27.79;51.04;100330.66;31352058;28;20548;-76
2023/08/25 21:52:10;;;;;;;20.20;7.97;;;;;;;27.37;55.75;100305.19;31332839;28;20041;-76
2023/08/25 22:07:12;;;;;;;20.27;7.90;;;;;;;27.50;56.49;100299.66;31332329;28;20080;-77
2023/08/25 22:22:14;;;;;;;21.73;8.53;;;;;;;27.31;57.92;100312.88;31331510;28;20073;-76
2023/08/25 22:37:16;;;;;;;15.50;6.63;;;;;;;27.06;58.23;100328.94;31348878;28;20135;-77
2023/08/25 22:52:19;;;;;;;10.20;6.22;;;;;;;26.74;58.25;100323.25;31355906;28;20045;-77
2023/08/25 23:07:21;;;;;;;9.80;4.83;;;;;;;26.60;57.20;100310.50;31347374;28;20055;-76
2023/08/25 23:22:24;;;;;;;9.83;4.90;;;;;;;26.38;56.62;100310.78;31350864;28;20045;-76
2023/08/25 23:37:26;;;;;;;8.05;4.32;;;;;;;26.37;56.24;100328.75;31348311;28;20045;-79
2023/08/25 23:52:29;;;;;;;8.20;3.83;;;;;;;26.47;55.71;100315.97;31349382;28;20048;-77
